Time;durP1;ratioP1;P1;durP2;ratioP2;P2;SDS_P1;SDS_P2;PMS_P1;PMS_P2;Temp;Humidity;BMP_temperature;BMP_pressure;BME280_temperature;BME280_humidity;BME280_pressure;Samples;Min_cycle;Max_cycle;Signal;HPM_P1;HPM_P2
2023/02/19 00:00:14;;;;;;;6.70;1.30;;;7.60;95.90;;;;;;5063960;28;20289;-65
2023/02/19 00:02:44;;;;;;;4.23;1.20;;;7.60;95.90;;;;;;5064865;28;20189;-65
2023/02/19 00:05:11;;;;;;;3.97;1.50;;;7.60;95.90;;;;;;5062666;28;20189;-65
2023/02/19 00:07:38;;;;;;;3.00;1.40;;;7.60;95.90;;;;;;5064562;28;20620;-66
2023/02/19 00:10:06;;;;;;;2.83;1.43;;;8.50;96.30;;;;;;5066818;28;20665;-65
2023/02/19 00:12:33;;;;;;;5.93;1.87;;;7.60;95.90;;;;;;5059171;28;20204;-65
2023/02/19 00:15:01;;;;;;;5.00;1.30;;;7.60;95.90;;;;;;5068931;28;20739;-65
2023/02/19 00:17:28;;;;;;;2.30;1.27;;;7.60;95.90;;;;;;5058222;28;20218;-65
2023/02/19 00:19:55;;;;;;;4.13;1.33;;;7.60;95.90;;;;;;5064331;28;20196;-65
2023/02/19 00:22:23;;;;;;;3.40;1.30;;;7.60;95.90;;;;;;5067846;28;20193;-65
2023/02/19 00:24:50;;;;;;;6.67;1.73;;;7.50;95.90;;;;;;5058559;28;20193;-65
2023/02/19 00:27:17;;;;;;;6.93;1.53;;;7.50;96.00;;;;;;5065075;28;20212;-65
2023/02/19 00:29:44;;;;;;;4.90;1.60;;;7.50;96.00;;;;;;5063605;28;20205;-65
2023/02/19 00:32:12;;;;;;;4.17;1.70;;;7.50;96.10;;;;;;5067172;28;20672;-66
2023/02/19 00:34:39;;;;;;;3.27;1.53;;;7.40;96.10;;;;;;5093319;28;20197;-67
2023/02/19 00:37:07;;;;;;;2.57;1.27;;;7.40;96.10;;;;;;5065293;28;20209;-66
2023/02/19 00:39:34;;;;;;;6.67;1.57;;;7.40;96.10;;;;;;5063648;28;20224;-66
2023/02/19 00:42:01;;;;;;;5.53;1.50;;;7.40;96.20;;;;;;5063115;28;20520;-64
2023/02/19 00:44:28;;;;;;;7.03;1.70;;;7.40;96.20;;;;;;5065354;28;20205;-64
2023/02/19 00:46:55;;;;;;;4.87;1.47;;;7.40;96.20;;;;;;5070774;28;20564;-65
2023/02/19 00:49:24;;;;;;;6.47;1.57;;;7.40;96.20;;;;;;5068435;28;20203;-64
2023/02/19 00:51:52;;;;;;;9.57;1.57;;;7.40;96.30;;;;;;5063759;28;20205;-65
2023/02/19 00:54:21;;;;;;;3.00;1.10;;;7.40;96.20;;;;;;5067099;28;20193;-65
2023/02/19 00:56:48;;;;;;;6.57;1.37;;;7.30;96.20;;;;;;5065416;28;20218;-65
2023/02/19 00:59:16;;;;;;;5.83;1.27;;;7.40;96.30;;;;;;5058087;28;20206;-65
2023/02/19 01:01:44;;;;;;;5.33;1.30;;;7.40;96.30;;;;;;5055721;28;20221;-65
2023/02/19 01:04:11;;;;;;;4.77;1.50;;;7.40;96.30;;;;;;5067029;28;20680;-66
2023/02/19 01:06:40;;;;;;;4.57;1.33;;;7.40;96.30;;;;;;5063171;28;20201;-65
2023/02/19 01:09:07;;;;;;;4.40;1.07;;;7.40;96.30;;;;;;5062396;28;20595;-65
2023/02/19 01:11:35;;;;;;;6.87;1.60;;;7.40;96.60;;;;;;5065052;28;20208;-66
2023/02/19 01:14:03;;;;;;;5.23;1.40;;;7.40;96.20;;;;;;5060111;28;20231;-66
2023/02/19 01:16:31;;;;;;;6.07;1.43;;;7.40;96.20;;;;;;5065960;28;20205;-65
2023/02/19 01:18:58;;;;;;;4.10;1.17;;;7.40;96.20;;;;;;5062667;28;20193;-66
2023/02/19 01:21:27;;;;;;;3.43;1.40;;;7.40;96.20;;;;;;5061236;28;20198;-65
2023/02/19 01:23:57;;;;;;;4.63;1.40;;;7.40;96.10;;;;;;5064688;28;20292;-66
2023/02/19 01:26:29;;;;;;;2.30;1.13;;;7.40;96.10;;;;;;5065272;28;20189;-65
2023/02/19 01:28:57;;;;;;;2.50;1.10;;;7.40;96.10;;;;;;5063424;28;20191;-65
2023/02/19 01:31:24;;;;;;;4.57;1.17;;;7.40;96.10;;;;;;5095882;28;20204;-66
2023/02/19 01:33:53;;;;;;;3.27;1.20;;;7.50;96.10;;;;;;5061507;28;20232;-65
2023/02/19 01:36:20;;;;;;;5.23;1.60;;;7.50;96.00;;;;;;5066778;28;20568;-65
2023/02/19 01:38:48;;;;;;;2.80;1.03;;;7.50;96.00;;;;;;5065459;28;20679;-66
2023/02/19 01:41:18;;;;;;;3.00;0.80;;;7.60;96.10;;;;;;5067230;28;20656;-66
2023/02/19 01:43:58;;;;;;;5.83;1.27;;;7.60;96.10;;;;;;5063394;28;20210;-66
2023/02/19 01:46:27;;;;;;;2.00;1.10;;;7.60;96.00;;;;;;5064970;28;20793;-66
2023/02/19 01:48:55;;;;;;;1.47;1.00;;;7.60;96.00;;;;;;5065155;28;20661;-66
2023/02/19 01:51:22;;;;;;;3.33;1.00;;;7.70;96.00;;;;;;5068896;28;20200;-66
2023/02/19 01:53:53;;;;;;;5.27;1.10;;;7.70;95.90;;;;;;5067955;28;20201;-66
2023/02/19 01:56:24;;;;;;;6.10;1.63;;;7.70;95.80;;;;;;5068550;28;20197;-66
2023/02/19 01:58:52;;;;;;;2.27;1.30;;;7.70;95.70;;;;;;5065118;28;20193;-65
2023/02/19 02:01:19;;;;;;;3.03;1.40;;;7.70;95.70;;;;;;5066914;28;20263;-66
2023/02/19 02:03:49;;;;;;;3.83;1.17;;;7.70;95.70;;;;;;5066799;28;20201;-65
2023/02/19 02:06:22;;;;;;;5.10;1.57;;;7.70;95.70;;;;;;5065310;28;20193;-64
2023/02/19 02:11:42;;;;;;;6.27;1.40;;;7.70;95.70;;;;;;5066605;28;20193;-65
2023/02/19 02:14:09;;;;;;;3.47;1.53;;;7.60;95.80;;;;;;5064235;28;20189;-64
2023/02/19 02:16:50;;;;;;;5.90;1.73;;;7.60;95.80;;;;;;5066125;28;20200;-65
2023/02/19 02:19:32;;;;;;;4.40;1.10;;;7.60;95.80;;;;;;5066616;28;20190;-66
2023/02/19 02:22:07;;;;;;;2.90;1.10;;;7.60;95.90;;;;;;5062668;28;20225;-66
2023/02/19 02:25:05;;;;;;;3.17;1.23;;;7.60;95.90;;;;;;5069720;28;20188;-65
2023/02/19 02:27:54;;;;;;;5.00;1.50;;;7.50;95.90;;;;;;5069386;28;20193;-66
2023/02/19 02:30:35;;;;;;;5.83;1.50;;;7.60;96.00;;;;;;5066375;28;20197;-65
2023/02/19 02:33:12;;;;;;;3.50;1.40;;;7.60;96.00;;;;;;5061669;28;20228;-65
2023/02/19 02:35:45;;;;;;;3.83;1.17;;;7.60;96.20;;;;;;5066899;28;20235;-66
2023/02/19 02:38:15;;;;;;;6.57;1.23;;;7.50;96.10;;;;;;5066804;28;20220;-66
2023/02/19 02:40:44;;;;;;;4.63;1.47;;;7.60;96.20;;;;;;5065433;28;20690;-66
2023/02/19 02:43:13;;;;;;;5.47;1.40;;;7.50;96.20;;;;;;5063228;28;20204;-66
2023/02/19 02:45:42;;;;;;;4.17;1.10;;;7.60;96.30;;;;;;5062251;28;20201;-65
2023/02/19 02:48:35;;;;;;;8.53;1.53;;;7.60;96.30;;;;;;5064062;28;20181;-65
2023/02/19 02:51:09;;;;;;;3.03;1.37;;;7.50;96.30;;;;;;5064331;28;20216;-65
2023/02/19 02:56:35;;;;;;;2.30;1.00;;;7.40;96.30;;;;;;5065302;28;20242;-66
2023/02/19 02:59:06;;;;;;;4.20;1.13;;;7.50;96.40;;;;;;5063579;28;21129;-66
2023/02/19 03:04:30;;;;;;;5.43;1.07;;;7.40;96.40;;;;;;5095988;28;20185;-66
2023/02/19 03:07:03;;;;;;;5.50;1.17;;;7.40;96.50;;;;;;5066914;28;20548;-65
2023/02/19 03:09:39;;;;;;;5.50;1.37;;;7.40;96.40;;;;;;5063221;28;20755;-65
2023/02/19 03:20:44;;;;;;;4.73;1.23;;;7.30;96.50;;;;;;5069699;28;20204;-65
2023/02/19 03:23:12;;;;;;;2.97;1.23;;;7.30;96.60;;;;;;5067232;28;20607;-65
2023/02/19 03:31:25;;;;;;;4.37;0.93;;;7.30;96.60;;;;;;5070715;28;20218;-65
2023/02/19 03:33:57;;;;;;;5.50;1.60;;;7.30;96.70;;;;;;5070956;28;20244;-64
2023/02/19 03:36:30;;;;;;;4.23;1.00;;;7.20;96.70;;;;;;5068726;28;20211;-65
2023/02/19 03:39:02;;;;;;;4.93;1.40;;;7.20;96.70;;;;;;5070048;28;20308;-65
2023/02/19 03:41:34;;;;;;;3.23;1.30;;;7.30;96.70;;;;;;5069677;28;20193;-65
2023/02/19 03:44:09;;;;;;;7.50;1.30;;;7.20;96.70;;;;;;5065626;28;20641;-65
2023/02/19 03:46:45;;;;;;;5.17;1.70;;;7.20;96.70;;;;;;5071063;28;20540;-65
2023/02/19 03:49:24;;;;;;;4.10;1.50;;;7.20;96.80;;;;;;5099716;28;20815;-65
2023/02/19 03:51:57;;;;;;;3.53;1.03;;;7.10;96.80;;;;;;5067176;28;20729;-66
2023/02/19 03:54:35;;;;;;;4.37;1.33;;;7.20;96.90;;;;;;5067069;28;20200;-65
2023/02/19 03:57:07;;;;;;;3.03;1.20;;;7.20;96.90;;;;;;5062836;28;20240;-66
2023/02/19 03:59:41;;;;;;;3.43;1.20;;;7.20;96.90;;;;;;5066290;28;20739;-65
2023/02/19 04:02:13;;;;;;;4.13;1.20;;;7.30;96.90;;;;;;5100246;28;20219;-65
2023/02/19 04:04:45;;;;;;;2.73;1.00;;;7.30;96.90;;;;;;5068355;28;20267;-66
2023/02/19 04:07:13;;;;;;;7.53;1.57;;;7.30;96.90;;;;;;5064369;28;20562;-66
2023/02/19 04:09:45;;;;;;;5.70;1.40;;;7.30;96.90;;;;;;5067722;28;20205;-66
2023/02/19 04:12:19;;;;;;;4.57;1.20;;;7.30;97.00;;;;;;5082154;28;20201;-66
2023/02/19 04:14:52;;;;;;;4.17;1.60;;;7.40;97.00;;;;;;5066159;28;20201;-65
2023/02/19 04:17:23;;;;;;;7.33;1.40;;;7.30;96.90;;;;;;5066603;28;20201;-66
2023/02/19 04:19:54;;;;;;;3.50;0.90;;;7.30;96.90;;;;;;5097385;28;20311;-65
2023/02/19 04:22:22;;;;;;;4.27;1.00;;;7.30;96.90;;;;;;5066679;28;20279;-66
2023/02/19 04:24:52;;;;;;;1.40;0.80;;;7.30;96.90;;;;;;5065779;28;20182;-66
2023/02/19 04:27:19;;;;;;;3.20;1.10;;;7.30;96.90;;;;;;5065737;28;20216;-65
2023/02/19 04:29:46;;;;;;;4.37;1.30;;;7.30;96.90;;;;;;5073593;28;20691;-65
2023/02/19 04:32:14;;;;;;;4.73;1.33;;;7.30;96.80;;;;;;5070699;28;20588;-66
2023/02/19 04:34:41;;;;;;;3.70;1.23;;;7.30;96.90;;;;;;5067671;28;20198;-66
2023/02/19 04:37:10;;;;;;;7.43;1.47;;;7.30;96.80;;;;;;5070730;28;20189;-66
2023/02/19 04:39:37;;;;;;;2.37;0.90;;;7.30;96.90;;;;;;5068899;28;20196;-65
2023/02/19 04:42:07;;;;;;;2.40;1.20;;;7.30;96.90;;;;;;5068563;28;20204;-66
2023/02/19 04:44:34;;;;;;;6.37;1.40;;;7.30;97.00;;;;;;5070264;28;20192;-65
2023/02/19 04:47:01;;;;;;;3.00;1.07;;;7.30;96.90;;;;;;5066074;28;20995;-65
2023/02/19 04:49:29;;;;;;;3.10;1.00;;;7.30;96.90;;;;;;5065086;28;20186;-66
2023/02/19 04:51:56;;;;;;;3.50;1.20;;;7.30;96.90;;;;;;5068741;28;20197;-66
2023/02/19 04:54:24;;;;;;;2.90;1.20;;;7.30;97.00;;;;;;5068573;28;20189;-64
2023/02/19 04:56:51;;;;;;;4.63;1.33;;;7.30;97.00;;;;;;5069388;28;20892;-65
2023/02/19 04:59:18;;;;;;;1.80;1.10;;;7.30;96.90;;;;;;5068247;28;20205;-65
2023/02/19 05:01:46;;;;;;;5.47;1.10;;;7.30;96.90;;;;;;5068914;28;20201;-65
2023/02/19 05:04:13;;;;;;;2.37;1.07;;;7.30;96.90;;;;;;5067196;28;20693;-65
2023/02/19 05:06:40;;;;;;;3.83;1.00;;;7.40;96.90;;;;;;5068540;28;20198;-64
2023/02/19 05:09:07;;;;;;;7.00;1.37;;;7.40;97.00;;;;;;5062564;28;20728;-65
2023/02/19 05:11:36;;;;;;;6.80;1.30;;;7.40;97.00;;;;;;5064402;28;20588;-65
2023/02/19 05:14:03;;;;;;;5.23;1.20;;;7.40;96.90;;;;;;5067497;28;20212;-65
2023/02/19 05:16:31;;;;;;;2.77;1.00;;;7.40;96.80;;;;;;5065729;28;20189;-64
2023/02/19 05:18:59;;;;;;;5.37;1.40;;;7.40;96.90;;;;;;5066486;28;20332;-64
2023/02/19 05:21:26;;;;;;;2.30;1.07;;;7.30;96.90;;;;;;5066597;28;20689;-65
2023/02/19 05:23:53;;;;;;;2.20;1.10;;;7.30;96.90;;;;;;5066217;28;20273;-65
2023/02/19 05:26:22;;;;;;;3.97;1.17;;;7.30;96.90;;;;;;5066236;28;20268;-64
2023/02/19 05:28:53;;;;;;;3.83;0.93;;;7.30;97.00;;;;;;5066594;28;20206;-64
2023/02/19 05:31:21;;;;;;;3.93;1.20;;;7.30;97.00;;;;;;5070170;28;20189;-66
2023/02/19 05:33:49;;;;;;;5.50;1.57;;;7.30;97.00;;;;;;5068141;28;20251;-65
2023/02/19 05:36:18;;;;;;;5.67;1.17;;;7.30;97.00;;;;;;5065354;28;20201;-65
2023/02/19 05:38:45;;;;;;;4.57;1.20;;;7.30;97.00;;;;;;5069764;28;20209;-65
2023/02/19 05:41:14;;;;;;;7.70;1.50;;;7.30;97.00;;;;;;5066738;28;20204;-65
2023/02/19 05:43:45;;;;;;;5.40;1.23;;;7.20;97.00;;;;;;5066476;28;20238;-66
2023/02/19 05:46:15;;;;;;;3.53;1.13;;;7.20;97.00;;;;;;5068333;28;20231;-65
2023/02/19 05:48:43;;;;;;;4.90;1.07;;;7.20;97.10;;;;;;5064347;28;20199;-65
2023/02/19 05:51:12;;;;;;;3.50;1.10;;;7.20;97.20;;;;;;5065479;28;20203;-65
2023/02/19 05:53:40;;;;;;;5.70;1.03;;;7.20;97.20;;;;;;5064969;28;20207;-64
2023/02/19 05:56:23;;;;;;;3.40;1.10;;;7.20;97.20;;;;;;5064433;28;20553;-65
2023/02/19 05:58:50;;;;;;;5.80;1.40;;;7.30;97.30;;;;;;5063850;28;20205;-65
2023/02/19 06:01:21;;;;;;;6.27;1.30;;;7.30;97.60;;;;;;5066676;28;20185;-65
2023/02/19 06:03:48;;;;;;;2.27;1.20;;;7.30;97.30;;;;;;5064901;28;20673;-65
2023/02/19 06:06:17;;;;;;;6.33;1.50;;;7.30;97.30;;;;;;5064376;28;20263;-65
2023/02/19 06:08:44;;;;;;;5.20;1.20;;;7.30;97.40;;;;;;5064185;28;20204;-64
2023/02/19 06:11:11;;;;;;;2.73;1.23;;;7.30;97.40;;;;;;5065207;28;20189;-65
2023/02/19 06:13:38;;;;;;;2.00;1.10;;;7.30;97.40;;;;;;5066379;28;20668;-65
2023/02/19 06:16:06;;;;;;;1.00;0.90;;;7.30;97.40;;;;;;5068977;28;20250;-64
2023/02/19 06:18:35;;;;;;;4.90;1.37;;;7.30;97.40;;;;;;5063195;28;20212;-65
2023/02/19 06:21:03;;;;;;;2.07;0.80;;;7.30;97.40;;;;;;5063609;28;20193;-65
2023/02/19 06:23:31;;;;;;;4.97;1.20;;;7.40;97.50;;;;;;5065438;28;20188;-65
2023/02/19 06:26:06;;;;;;;5.07;1.33;;;7.40;97.50;;;;;;5063994;28;20189;-66
2023/02/19 06:28:33;;;;;;;5.63;1.30;;;7.40;97.60;;;;;;5063509;28;20544;-65
2023/02/19 06:31:01;;;;;;;1.83;1.00;;;7.50;97.60;;;;;;5069538;28;20200;-65
2023/02/19 06:33:28;;;;;;;3.37;1.10;;;7.50;97.60;;;;;;5066027;28;20229;-66
2023/02/19 06:36:00;;;;;;;3.03;0.97;;;7.50;97.60;;;;;;5068276;28;20514;-66
2023/02/19 06:38:28;;;;;;;2.93;1.30;;;7.50;97.60;;;;;;5070348;28;20239;-65
2023/02/19 06:40:59;;;;;;;5.93;1.23;;;7.60;97.70;;;;;;5067668;28;20278;-66
2023/02/19 06:43:26;;;;;;;2.67;0.97;;;7.60;97.70;;;;;;5065634;28;20201;-65
2023/02/19 06:45:54;;;;;;;2.80;1.20;;;7.60;97.70;;;;;;5064315;28;20538;-65
2023/02/19 06:48:21;;;;;;;2.87;1.10;;;7.60;97.70;;;;;;5065521;28;20220;-65
2023/02/19 06:50:48;;;;;;;4.20;1.20;;;7.70;97.80;;;;;;5069310;28;20196;-65
2023/02/19 06:53:17;;;;;;;5.07;1.50;;;7.60;97.70;;;;;;5068003;28;20243;-65
2023/02/19 06:55:44;;;;;;;3.03;1.50;;;7.60;97.80;;;;;;5068579;28;20192;-65
2023/02/19 06:58:11;;;;;;;3.47;1.20;;;7.60;97.80;;;;;;5066393;28;20217;-65
2023/02/19 07:00:38;;;;;;;2.60;1.40;;;7.60;97.80;;;;;;5066580;28;20189;-65
2023/02/19 07:03:07;;;;;;;1.87;1.17;;;7.60;97.80;;;;;;5068414;28;20195;-66
2023/02/19 07:05:34;;;;;;;5.53;1.80;;;7.60;97.90;;;;;;5062712;28;20198;-66
2023/02/19 07:08:01;;;;;;;4.13;1.63;;;7.60;97.90;;;;;;5070311;28;20193;-66
2023/02/19 07:10:30;;;;;;;3.97;1.20;;;7.60;97.90;;;;;;5067573;28;20277;-66
2023/02/19 07:12:57;;;;;;;8.73;2.13;;;7.60;98.00;;;;;;5067325;28;20205;-64
2023/02/19 07:15:24;;;;;;;4.80;2.20;;;7.60;98.00;;;;;;5066952;28;20205;-66
2023/02/19 07:17:51;;;;;;;5.73;2.00;;;7.60;98.00;;;;;;5067359;28;20704;-66
2023/02/19 07:20:18;;;;;;;5.07;1.80;;;7.60;98.10;;;;;;5068490;28;20209;-66
2023/02/19 07:22:45;;;;;;;4.43;1.80;;;7.70;98.00;;;;;;5065795;28;20200;-64
2023/02/19 07:25:13;;;;;;;7.03;1.87;;;7.70;98.00;;;;;;5066011;28;20217;-66
2023/02/19 07:27:41;;;;;;;3.13;1.40;;;7.70;97.90;;;;;;5068256;28;20281;-65
2023/02/19 07:30:09;;;;;;;4.20;1.67;;;7.80;97.90;;;;;;5068991;28;20223;-66
2023/02/19 07:32:40;;;;;;;8.30;2.30;;;7.80;97.90;;;;;;5072350;28;20233;-65
2023/02/19 07:35:08;;;;;;;4.40;1.90;;;7.80;97.80;;;;;;5071266;28;20295;-65
2023/02/19 07:37:35;;;;;;;6.23;1.90;;;7.80;97.80;;;;;;5070376;28;20259;-65
2023/02/19 07:40:02;;;;;;;6.70;2.33;;;7.80;97.80;;;;;;5067405;28;20206;-66
2023/02/19 07:42:29;;;;;;;5.17;2.00;;;7.80;97.70;;;;;;5070222;28;20514;-66
2023/02/19 07:44:58;;;;;;;7.10;2.27;;;7.80;97.70;;;;;;5070624;28;20200;-65
2023/02/19 07:47:25;;;;;;;6.50;2.27;;;7.80;97.60;;;;;;5068445;28;20510;-66
2023/02/19 07:49:52;;;;;;;4.07;1.77;;;7.80;97.60;;;;;;5067853;28;20563;-65
2023/02/19 07:52:19;;;;;;;3.90;1.50;;;7.90;97.80;;;;;;5067317;28;20210;-66
2023/02/19 07:54:46;;;;;;;3.40;1.43;;;7.90;97.60;;;;;;5068620;28;20197;-67
2023/02/19 07:57:13;;;;;;;2.77;1.40;;;8.00;97.40;;;;;;5071966;28;20204;-66
2023/02/19 07:59:40;;;;;;;3.70;1.17;;;8.00;97.20;;;;;;5070272;28;20209;-66
2023/02/19 08:05:00;;;;;;;8.30;2.17;;;8.10;97.10;;;;;;5069260;28;20239;-66
2023/02/19 08:07:31;;;;;;;1.80;1.13;;;8.20;96.80;;;;;;5066487;28;20212;-66
2023/02/19 08:15:24;;;;;;;3.37;1.60;;;8.20;96.40;;;;;;5066994;28;20324;-66
2023/02/19 08:17:53;;;;;;;6.67;2.17;;;8.30;96.20;;;;;;5067176;28;20586;-65
2023/02/19 08:20:20;;;;;;;3.57;1.57;;;8.30;96.20;;;;;;5067443;28;20294;-66
2023/02/19 08:22:47;;;;;;;3.07;1.57;;;8.50;96.10;;;;;;5071616;28;20679;-64
2023/02/19 08:25:15;;;;;;;3.30;1.43;;;8.60;96.00;;;;;;5064842;28;20209;-65
2023/02/19 08:27:42;;;;;;;5.60;2.20;;;8.80;95.80;;;;;;5067736;28;20537;-66
2023/02/19 08:30:10;;;;;;;3.37;1.97;;;8.90;95.20;;;;;;5066162;28;20628;-65
2023/02/19 08:32:37;;;;;;;3.43;1.97;;;8.90;94.60;;;;;;5064094;28;20248;-65
2023/02/19 08:35:06;;;;;;;3.23;1.70;;;8.90;94.60;;;;;;5067553;28;20207;-65
2023/02/19 08:37:33;;;;;;;2.70;1.50;;;8.90;94.60;;;;;;5069095;28;20210;-66
2023/02/19 08:40:00;;;;;;;3.87;1.40;;;8.90;94.60;;;;;;5063526;28;20696;-66
2023/02/19 08:42:28;;;;;;;2.50;1.60;;;9.00;94.50;;;;;;5070071;28;20194;-66
2023/02/19 08:44:56;;;;;;;2.90;1.10;;;9.00;94.30;;;;;;5063324;28;20203;-66
2023/02/19 08:47:23;;;;;;;5.00;1.20;;;9.10;94.30;;;;;;5062325;28;20203;-66
2023/02/19 08:49:50;;;;;;;2.87;1.23;;;9.20;94.10;;;;;;5068882;28;20218;-66
2023/02/19 08:52:18;;;;;;;2.87;1.20;;;9.30;94.00;;;;;;5068157;28;20204;-66
2023/02/19 08:54:46;;;;;;;1.73;1.00;;;9.30;93.90;;;;;;5066322;28;20544;-66
2023/02/19 08:57:13;;;;;;;2.50;1.20;;;9.40;93.80;;;;;;5068341;28;20243;-66
2023/02/19 08:59:40;;;;;;;3.93;1.40;;;9.50;93.70;;;;;;5069022;28;20216;-66
2023/02/19 09:02:08;;;;;;;1.20;1.10;;;9.50;93.30;;;;;;5065141;28;20545;-65
2023/02/19 09:04:36;;;;;;;3.60;1.23;;;9.50;92.40;;;;;;5067177;28;20346;-66
2023/02/19 09:07:06;;;;;;;5.77;1.33;;;9.40;91.90;;;;;;5065737;28;20200;-66
2023/02/19 09:09:37;;;;;;;2.83;1.40;;;9.40;91.80;;;;;;5067965;28;20222;-65
2023/02/19 09:12:05;;;;;;;1.47;1.00;;;9.40;91.50;;;;;;5066307;28;20199;-65
2023/02/19 09:14:33;;;;;;;3.17;1.50;;;9.50;91.70;;;;;;5067416;28;20278;-66
2023/02/19 09:17:04;;;;;;;2.37;0.90;;;9.50;91.60;;;;;;5069629;28;20203;-66
2023/02/19 09:19:31;;;;;;;3.90;1.00;;;9.70;91.60;;;;;;5065669;28;20208;-64
2023/02/19 09:21:59;;;;;;;4.80;1.00;;;9.80;91.30;;;;;;5065885;28;20196;-66
2023/02/19 09:24:26;;;;;;;3.07;1.10;;;9.90;90.70;;;;;;5067814;28;20191;-66
2023/02/19 09:26:55;;;;;;;1.57;1.00;;;9.80;90.60;;;;;;5067198;28;20679;-66
2023/02/19 09:29:25;;;;;;;4.33;1.30;;;9.90;90.70;;;;;;5061873;28;20196;-66
2023/02/19 09:31:56;;;;;;;2.93;1.13;;;10.00;89.30;;;;;;5068906;28;20199;-65
2023/02/19 09:34:23;;;;;;;2.63;1.07;;;10.00;88.30;;;;;;5063919;28;20656;-66
2023/02/19 09:36:51;;;;;;;1.83;1.10;;;10.00;87.90;;;;;;5066824;28;20298;-66
2023/02/19 09:39:18;;;;;;;2.47;1.10;;;10.10;86.40;;;;;;5067229;28;20306;-66
2023/02/19 09:41:48;;;;;;;2.70;1.10;;;10.20;85.90;;;;;;5065949;28;20203;-66
2023/02/19 09:44:23;;;;;;;0.70;0.70;;;10.30;85.50;;;;;;5067494;28;20200;-66
2023/02/19 09:46:55;;;;;;;4.07;1.23;;;10.50;85.20;;;;;;5068717;28;20269;-65
2023/02/19 09:49:28;;;;;;;3.07;0.90;;;10.70;84.40;;;;;;5064816;28;20205;-65
2023/02/19 09:51:59;;;;;;;1.43;0.93;;;10.80;83.20;;;;;;5064795;28;20606;-65
2023/02/19 09:54:30;;;;;;;2.03;1.30;;;11.10;83.40;;;;;;5066479;28;20207;-65
2023/02/19 09:57:00;;;;;;;2.43;0.93;;;11.70;83.40;;;;;;5065376;28;20192;-64
2023/02/19 09:59:33;;;;;;;1.37;0.87;;;12.00;81.30;;;;;;5068395;28;20203;-65
2023/02/19 10:02:04;;;;;;;1.50;0.70;;;12.00;80.00;;;;;;5066728;28;20538;-64
2023/02/19 10:04:32;;;;;;;1.23;1.00;;;12.20;77.70;;;;;;5066767;28;20982;-65
2023/02/19 10:07:02;;;;;;;1.50;0.97;;;12.70;77.10;;;;;;5066805;28;20246;-66
2023/02/19 10:09:32;;;;;;;0.67;0.60;;;13.30;76.00;;;;;;5067366;28;20195;-65
2023/02/19 10:11:59;;;;;;;4.50;0.80;;;13.50;75.10;;;;;;5066520;28;20195;-65
2023/02/19 10:14:36;;;;;;;1.93;0.83;;;13.50;72.70;;;;;;5062022;28;20268;-65
2023/02/19 10:17:05;;;;;;;1.17;0.77;;;13.30;72.00;;;;;;5066778;28;20833;-66
2023/02/19 10:19:33;;;;;;;1.10;0.70;;;13.80;69.60;;;;;;5056736;28;20952;-64
2023/02/19 10:22:02;;;;;;;1.93;1.00;;;14.10;68.00;;;;;;5059301;28;20613;-64
2023/02/19 10:24:30;;;;;;;1.03;0.70;;;13.80;65.90;;;;;;5068786;28;20213;-65
2023/02/19 10:26:58;;;;;;;0.83;0.80;;;13.80;65.40;;;;;;5060587;28;20557;-65
2023/02/19 10:29:26;;;;;;;1.07;0.67;;;14.60;65.40;;;;;;5059667;28;20205;-66
2023/02/19 10:32:19;;;;;;;1.90;0.60;;;15.30;64.00;;;;;;5055094;28;20205;-66
2023/02/19 10:34:48;;;;;;;1.93;0.80;;;15.20;62.70;;;;;;5063390;28;20296;-66
2023/02/19 10:37:17;;;;;;;2.83;0.90;;;15.30;60.90;;;;;;5059629;28;20194;-65
2023/02/19 10:39:46;;;;;;;0.57;0.57;;;15.80;60.20;;;;;;5093724;28;20581;-65
2023/02/19 10:42:16;;;;;;;0.80;0.70;;;16.40;59.50;;;;;;5061386;28;20188;-65
2023/02/19 10:44:48;;;;;;;0.93;0.80;;;16.70;57.10;;;;;;5057673;28;20707;-66
2023/02/19 10:47:20;;;;;;;0.70;0.70;;;17.00;53.50;;;;;;5067327;28;20220;-66
2023/02/19 10:49:48;;;;;;;0.73;0.60;;;16.90;51.90;;;;;;5063143;28;20192;-66
2023/02/19 10:52:19;;;;;;;3.33;0.97;;;17.00;50.20;;;;;;5060617;28;20231;-66
2023/02/19 10:54:51;;;;;;;0.93;0.53;;;16.60;47.90;;;;;;5060779;28;20207;-66
2023/02/19 10:57:31;;;;;;;0.97;0.80;;;16.10;49.30;;;;;;5064445;28;20200;-66
2023/02/19 11:00:02;;;;;;;0.80;0.73;;;16.00;49.00;;;;;;5057274;28;20241;-65
2023/02/19 11:02:31;;;;;;;1.03;0.70;;;15.60;48.60;;;;;;5054385;28;20193;-66
2023/02/19 11:05:16;;;;;;;1.43;0.87;;;15.00;48.60;;;;;;5058830;28;20290;-65
2023/02/19 11:07:46;;;;;;;1.10;0.70;;;14.60;49.90;;;;;;5067568;28;20188;-65
2023/02/19 11:10:25;;;;;;;1.33;0.90;;;14.20;49.60;;;;;;5065300;28;20614;-64
2023/02/19 11:12:54;;;;;;;1.93;0.93;;;13.70;49.80;;;;;;5064775;28;20205;-65
2023/02/19 11:15:24;;;;;;;2.30;0.80;;;13.30;49.50;;;;;;5065091;28;20190;-64
2023/02/19 11:17:59;;;;;;;0.93;0.80;;;13.10;49.40;;;;;;5065001;28;20186;-65
2023/02/19 11:20:30;;;;;;;1.40;0.83;;;12.80;49.60;;;;;;5064053;28;20197;-65
2023/02/19 11:23:01;;;;;;;2.43;0.83;;;12.90;50.20;;;;;;5063063;28;20243;-64
2023/02/19 11:25:29;;;;;;;0.80;0.70;;;13.10;49.80;;;;;;5065045;28;20194;-65
2023/02/19 11:28:01;;;;;;;2.50;0.63;;;13.20;49.60;;;;;;5056265;28;20211;-64
2023/02/19 11:30:38;;;;;;;0.70;0.60;;;13.50;48.70;;;;;;5063123;28;20201;-64
2023/02/19 11:33:27;;;;;;;0.87;0.70;;;13.90;48.50;;;;;;5064948;28;20705;-64
2023/02/19 11:36:16;;;;;;;0.70;0.70;;;14.20;47.10;;;;;;5062338;28;20205;-66
2023/02/19 11:38:43;;;;;;;0.83;0.83;;;14.30;47.00;;;;;;5069504;28;20534;-66
2023/02/19 11:41:16;;;;;;;1.00;0.90;;;14.40;46.00;;;;;;5068252;28;20212;-65
2023/02/19 11:44:01;;;;;;;2.40;0.90;;;14.10;46.60;;;;;;5069199;28;20583;-63
2023/02/19 11:46:38;;;;;;;1.80;1.10;;;13.80;47.00;;;;;;5068678;28;20213;-64
2023/02/19 11:49:17;;;;;;;1.30;1.00;;;13.40;47.30;;;;;;5067007;28;20186;-64
2023/02/19 11:52:00;;;;;;;2.33;1.10;;;13.10;47.50;;;;;;5069715;28;20189;-65
2023/02/19 11:54:49;;;;;;;0.70;0.70;;;13.10;48.10;;;;;;5070782;28;20190;-64
2023/02/19 11:57:37;;;;;;;2.53;1.00;;;13.20;48.60;;;;;;5071790;28;20185;-64
2023/02/19 12:00:22;;;;;;;2.67;1.20;;;13.40;48.00;;;;;;5068415;28;20213;-64
2023/02/19 12:03:18;;;;;;;1.30;1.07;;;13.50;48.30;;;;;;5070140;28;20202;-64
2023/02/19 12:06:05;;;;;;;1.40;0.70;;;13.40;47.70;;;;;;5069758;28;20286;-65
2023/02/19 12:09:01;;;;;;;0.60;0.60;;;13.00;46.80;;;;;;5067932;28;20210;-65
2023/02/19 12:11:54;;;;;;;1.03;0.80;;;12.80;47.20;;;;;;5067110;28;20537;-65
2023/02/19 12:14:45;;;;;;;1.80;0.60;;;12.80;46.80;;;;;;5063568;28;20202;-65
2023/02/19 12:17:34;;;;;;;1.53;0.60;;;12.90;47.60;;;;;;5068223;28;20665;-65
2023/02/19 12:20:13;;;;;;;0.90;0.67;;;12.90;47.60;;;;;;5068084;28;20723;-66
2023/02/19 12:22:50;;;;;;;0.77;0.77;;;13.10;47.90;;;;;;5065841;28;20203;-66
2023/02/19 12:25:40;;;;;;;1.23;0.97;;;13.40;47.90;;;;;;5066147;28;20191;-66
2023/02/19 12:28:23;;;;;;;0.83;0.80;;;13.60;47.00;;;;;;5065086;28;20194;-65
2023/02/19 12:31:33;;;;;;;1.23;0.80;;;13.70;45.90;;;;;;5068823;28;20608;-65
2023/02/19 12:34:22;;;;;;;1.90;0.70;;;13.80;45.10;;;;;;5041659;28;20229;-66
2023/02/19 12:37:01;;;;;;;1.80;0.80;;;13.70;45.40;;;;;;5069304;28;20202;-65
2023/02/19 12:39:36;;;;;;;0.50;0.50;;;13.40;45.20;;;;;;5097100;28;20198;-65
2023/02/19 12:42:11;;;;;;;2.20;0.67;;;13.10;45.70;;;;;;5065993;28;20665;-65
2023/02/19 12:44:43;;;;;;;1.17;0.90;;;13.10;46.30;;;;;;5061528;28;20220;-64
2023/02/19 12:47:18;;;;;;;0.67;0.67;;;13.00;45.60;;;;;;5065005;28;20213;-65
2023/02/19 12:49:52;;;;;;;1.67;0.90;;;12.90;45.60;;;;;;5068263;28;20200;-64
2023/02/19 12:52:25;;;;;;;0.80;0.80;;;12.80;45.90;;;;;;5066207;28;20220;-64
2023/02/19 12:54:55;;;;;;;1.13;0.83;;;12.60;46.10;;;;;;5066245;28;20193;-65
2023/02/19 12:57:25;;;;;;;0.70;0.70;;;12.60;45.80;;;;;;5065728;28;20178;-65
2023/02/19 12:59:58;;;;;;;1.57;0.80;;;12.60;45.50;;;;;;5067692;28;20506;-64
2023/02/19 13:02:30;;;;;;;0.70;0.70;;;12.80;45.10;;;;;;5065814;28;20197;-65
2023/02/19 13:05:02;;;;;;;0.77;0.77;;;13.00;44.60;;;;;;5068968;28;20497;-64
2023/02/19 13:07:39;;;;;;;0.70;0.70;;;13.20;45.20;;;;;;5066272;28;20673;-64
2023/02/19 13:10:22;;;;;;;1.47;0.60;;;13.30;43.70;;;;;;5065380;28;20204;-65
2023/02/19 13:12:50;;;;;;;0.60;0.60;;;13.70;41.90;;;;;;5067097;28;20721;-65
2023/02/19 13:15:21;;;;;;;0.70;0.60;;;14.10;40.20;;;;;;5065846;28;20228;-64
2023/02/19 13:17:52;;;;;;;0.60;0.60;;;14.40;40.70;;;;;;5064089;28;20190;-65
2023/02/19 13:20:29;;;;;;;0.70;0.60;;;14.60;41.20;;;;;;5065170;28;20214;-64
2023/02/19 13:26:16;;;;;;;0.97;0.70;;;14.90;39.20;;;;;;5070553;28;20663;-65
2023/02/19 13:28:59;;;;;;;0.83;0.70;;;15.00;38.10;;;;;;5065624;28;20190;-65
2023/02/19 13:31:38;;;;;;;0.73;0.50;;;15.20;37.20;;;;;;5068008;28;20183;-64
2023/02/19 13:34:19;;;;;;;0.83;0.70;;;15.10;36.80;;;;;;5065261;28;20675;-64
2023/02/19 13:36:49;;;;;;;0.60;0.60;;;15.20;37.90;;;;;;5065791;28;20215;-65
2023/02/19 13:39:19;;;;;;;1.10;0.97;;;15.40;38.30;;;;;;5066708;28;20192;-65
2023/02/19 13:41:53;;;;;;;1.20;1.10;;;15.10;38.30;;;;;;5065329;28;20301;-65
2023/02/19 13:44:21;;;;;;;1.47;1.30;;;14.90;38.90;;;;;;5066226;28;20603;-65
2023/02/19 13:46:50;;;;;;;1.50;1.17;;;14.70;38.30;;;;;;5068456;28;20223;-65